San Diego, CA (92132)

7:55 PM PDT on August 26, 2016 (GMT -0700)
Embarcadero North | | Change Station

Elev 10 ft 32.72 °N, 117.17 °W | Updated 7 seconds ago

Mostly Cloudy
Mostly Cloudy
67.5 °F
Feels Like 67.5 °F
N
1.6
Wind Variable Wind from NW
Gusts 2.5 mph

Today
High -- | Low -- °F
--% Chance of Precip.
Yesterday
High -- | Low -- °F
Precip. -- in
Pressure 29.96 in
Visibility 10.0 miles
Clouds Mostly Cloudy 2500 ft
Dew Point 58 °F
Humidity 72%
Rainfall 0.00 in
Snow Depth Not available.
6:19 AM 7:20 PM
Waning Crescent, 29% visible
METAR KSAN 270251Z 29006KT 10SM BKN025 20/13 A2996 RMK AO2 SLP146 T02000133 53003
Pressure 29.96 in
Visibility 10.0 miles
Clouds Mostly Cloudy 2500 ft
Dew Point 58 °F
Humidity 72%
Rainfall 0.00 in
Snow Depth Not available.
6:19 AM 7:20 PM
Waning Crescent, 29% visible
METAR KSAN 270251Z 29006KT 10SM BKN025 20/13 A2996 RMK AO2 SLP146 T02000133 53003

10-Day Weather Forecast

Almanac

Astronomy

Aug. 26, 2016 Rise Set
Actual Time
Civil Twilight
Nautical Twilight
Astronomical Twilight
Moon
Length of Visible Light
Length of Day
Tomorrow will be .
, % of the Moon is Illuminated

Today's Extremes

State Highs State Lows

Community

WunderPhotos

Upload Photos

1,935,281 photos uploaded!

WunderBlog® & News

Nearby

Air Quality

  Air Quality AQ Index Pollutant
Not available.

Snow Depth

Station Depth Elevation

Earthquake Activity

City Distance Mag. Time & Date
Minimum magnitude displayed is 2.5.

Coastal Water Temperatures

Place Temperature

Stations

Nearby Weather Stations

Station Location Temp. Windchill Dew Point Humidity Wind Precip. Elev Updated Type
                   

Watches & Warnings

There are currently no watches in effect.